»·PEaware :: N851TB KCIC-KLAX

N851TB :: KCIC-KLAX

FLIGHT INFORMATION

Flight Status: Arrived
Operator: Privately registered:
United States
More flights under this callsign
Pilot: Oliver L. (19934)
Aircraft: Unknown
(E195)
More flights by this aircraft type
Origin: KCIC Chico Mun
United States
Destination: KLAX Los Angeles Intl
United States
More flights between these airports :: More routes between these airports
Route: +GONGS3 SAC REBRG IRNMN2
File this flight plan on PilotEdge
Remarks:
Altitude:
(Current/Filed)
35,000ft
Speed:
(Current/Filed)
280kts
Departed: 17-Nov-18 09:32 PM
Arrived: 17-Nov-18 10:46 PM
Distance/Time
Traveled:
389nm/1:13
Distance/Time
To Go:
Arrived

Flight Plot

Page will automatically refresh every two minutes.

Flight plan parsing failed; only flown route is shown


Map Options




Map Legend


Flown Route
Filed Route
Departure Airport
Arrival Airport
Navaid (VOR, NDB)
Fix

Horizontal Profiles

Position Reports

Time Latitude Longitude Heading Altitude Ground
Speed
17-Nov-18 21:19 39.798652 -121.855291 237 242ft 0kts
17-Nov-18 21:20 39.798652 -121.855291 237 242ft 0kts
17-Nov-18 21:21 39.798652 -121.855291 237 242ft 0kts
17-Nov-18 21:22 39.798652 -121.855291 237 242ft 0kts
17-Nov-18 21:23 39.798652 -121.855291 237 242ft 0kts
17-Nov-18 21:24 39.798652 -121.855291 237 242ft 0kts
17-Nov-18 21:25 39.798652 -121.855292 237 242ft 0kts
17-Nov-18 21:26 39.798652 -121.855292 237 242ft 0kts
17-Nov-18 21:27 39.798652 -121.855292 237 242ft 0kts
17-Nov-18 21:28 39.798652 -121.855292 237 242ft 0kts
17-Nov-18 21:29 39.798652 -121.855292 237 242ft 0kts
17-Nov-18 21:30 39.798652 -121.855292 237 242ft 0kts
17-Nov-18 21:31 39.798333 -121.855956 237 242ft 9kts
17-Nov-18 21:32 39.802075 -121.860084 327 242ft 17kts
17-Nov-18 21:33 39.803312 -121.862823 282 242ft 9kts
17-Nov-18 21:34 39.803333 -121.862987 277 242ft 3kts
17-Nov-18 21:35 39.786538 -121.850404 147 529ft 182kts
17-Nov-18 21:36 39.733623 -121.858287 230 1758ft 283kts
17-Nov-18 21:37 39.744860 -121.949930 308 3869ft 293kts
17-Nov-18 21:38 39.731005 -122.043449 209 5915ft 304kts
17-Nov-18 21:39 39.657192 -122.015318 138 7988ft 310kts
17-Nov-18 21:40 39.579710 -121.964349 158 10011ft 319kts
17-Nov-18 21:41 39.495785 -121.922196 158 12019ft 329kts
17-Nov-18 21:42 39.409877 -121.878132 157 14021ft 339kts
17-Nov-18 21:43 39.320833 -121.833576 161 16029ft 350kts
17-Nov-18 21:44 39.225877 -121.801795 165 18030ft 361kts
17-Nov-18 21:45 39.126911 -121.770685 165 20042ft 373kts
17-Nov-18 21:46 39.025053 -121.737961 164 22048ft 386kts
17-Nov-18 21:47 38.919875 -121.704049 167 24061ft 395kts
17-Nov-18 21:48 38.820265 -121.672362 167 25907ft 411kts
17-Nov-18 21:49 38.708088 -121.636695 167 27914ft 426kts
17-Nov-18 21:50 38.571835 -121.593109 167 30262ft 440kts
17-Nov-18 21:51 38.472835 -121.561362 166 31924ft 444kts
17-Nov-18 21:52 38.363021 -121.490292 145 33914ft 447kts
17-Nov-18 21:53 38.262432 -121.397340 145 35105ft 462kts
17-Nov-18 21:54 38.156293 -121.302996 146 35091ft 486kts
17-Nov-18 21:55 38.045822 -121.206831 146 35090ft 481kts
17-Nov-18 21:56 37.934885 -121.111832 147 35093ft 484kts
17-Nov-18 21:57 37.825422 -121.018952 147 35087ft 487kts
17-Nov-18 21:58 37.712664 -120.923993 147 35081ft 490kts
17-Nov-18 21:59 37.599884 -120.828494 147 35082ft 490kts
17-Nov-18 22:00 37.487352 -120.733394 147 35093ft 490kts
17-Nov-18 22:01 37.374458 -120.638404 147 35102ft 490kts
17-Nov-18 22:02 37.261426 -120.543671 147 35097ft 489kts
17-Nov-18 22:03 37.147980 -120.448937 147 35095ft 489kts
17-Nov-18 22:04 37.035170 -120.355060 148 35099ft 486kts
17-Nov-18 22:05 36.928107 -120.265244 149 35096ft 479kts
17-Nov-18 22:06 36.819321 -120.175161 150 35098ft 480kts
17-Nov-18 22:07 36.689552 -120.069241 149 35094ft 480kts
17-Nov-18 22:08 36.596819 -119.993250 149 35091ft 480kts
17-Nov-18 22:09 36.485632 -119.902290 149 35094ft 480kts
17-Nov-18 22:10 36.374345 -119.811843 151 35099ft 479kts
17-Nov-18 22:11 36.253593 -119.747434 164 35102ft 473kts
17-Nov-18 22:12 36.130107 -119.691026 161 35102ft 474kts
17-Nov-18 22:13 36.007885 -119.630337 168 35100ft 471kts
17-Nov-18 22:14 35.884327 -119.641507 201 35123ft 464kts
17-Nov-18 22:15 35.744119 -119.704974 201 35114ft 463kts
17-Nov-18 22:16 35.641234 -119.740983 196 35110ft 465kts
17-Nov-18 22:17 35.514280 -119.771285 193 34737ft 472kts
17-Nov-18 22:18 35.388736 -119.800231 194 32721ft 449kts
17-Nov-18 22:19 35.267791 -119.801971 161 30726ft 446kts
17-Nov-18 22:20 35.166274 -119.717873 141 28749ft 439kts
17-Nov-18 22:21 35.074640 -119.624309 143 26754ft 423kts
17-Nov-18 22:22 34.983594 -119.539513 145 26113ft 417kts
17-Nov-18 22:23 34.891331 -119.454945 145 25489ft 432kts
17-Nov-18 22:24 34.796795 -119.371180 145 23685ft 411kts
17-Nov-18 22:25 34.718195 -119.300740 146 22187ft 405kts
17-Nov-18 22:26 34.628907 -119.222798 146 20175ft 389kts
17-Nov-18 22:27 34.542576 -119.148234 145 18322ft 378kts
17-Nov-18 22:28 34.459117 -119.074183 145 16313ft 365kts
17-Nov-18 22:29 34.378629 -119.004007 145 14580ft 355kts
17-Nov-18 22:30 34.299999 -118.934700 143 12765ft 348kts
17-Nov-18 22:31 34.228549 -118.866728 135 11973ft 299kts
17-Nov-18 22:32 34.161094 -118.805891 143 11860ft 312kts
17-Nov-18 22:33 34.096880 -118.737398 137 10259ft 304kts
17-Nov-18 22:34 34.038083 -118.667796 119 8849ft 288kts
17-Nov-18 22:35 34.020848 -118.575674 93 8003ft 278kts
17-Nov-18 22:36 34.014656 -118.500923 95 7126ft 261kts
17-Nov-18 22:37 34.018917 -118.409224 76 6324ft 232kts
17-Nov-18 22:38 34.028209 -118.348973 80 5571ft 233kts
17-Nov-18 22:39 34.037235 -118.263884 82 4063ft 224kts
17-Nov-18 22:40 34.043538 -118.205020 85 3597ft 216kts
17-Nov-18 22:41 34.047810 -118.120056 88 3591ft 221kts
17-Nov-18 22:42 34.009989 -118.090251 172 3597ft 224kts
17-Nov-18 22:43 33.965864 -118.133856 238 3591ft 220kts
17-Nov-18 22:44 33.943360 -118.185382 288 3601ft 184kts
17-Nov-18 22:45 33.950573 -118.234808 270 3020ft 162kts
17-Nov-18 22:46 33.947423 -118.284503 263 2048ft 161kts
17-Nov-18 22:47 33.942272 -118.334764 263 1016ft 138kts
17-Nov-18 22:48 33.937794 -118.378974 263 232ft 125kts
17-Nov-18 22:49 33.934924 -118.401606 226 131ft 24kts
17-Nov-18 22:50 33.934616 -118.397496 82 131ft 25kts
17-Nov-18 22:51 33.934261 -118.394948 261 131ft 8kts

Navigation Log

Ident Type
Flight plan parsing failed, navigation log unavailable